Time;durP1;ratioP1;P1;durP2;ratioP2;P2;SDS_P1;SDS_P2;PMS_P1;PMS_P2;Temp;Humidity;BMP_temperature;BMP_pressure;BME280_temperature;BME280_humidity;BME280_pressure;Samples;Min_cycle;Max_cycle;Signal;HPM_P1;HPM_P2
2022/01/11 00:00:32;;;;;;;1.25;0.98;;;;;;;;;;4197182;28;20057;-32
2022/01/11 00:02:47;;;;;;;1.58;0.88;;;;;;;;;;4198363;28;20052;-32
2022/01/11 00:04:48;;;;;;;1.00;0.93;;;;;;;;;;4198349;28;20421;-34
2022/01/11 00:06:51;;;;;;;1.00;0.90;;;;;;;;;;4197457;28;20121;-35
2022/01/11 00:08:54;;;;;;;1.15;0.90;;;;;;;;;;4198279;28;20048;-35
2022/01/11 00:11:02;;;;;;;1.00;0.90;;;;;;;;;;4198027;28;20545;-34
2022/01/11 00:13:04;;;;;;;0.75;0.75;;;;;;;;;;4197497;28;20386;-32
2022/01/11 00:15:05;;;;;;;1.10;0.80;;;;;;;;;;4197732;28;20106;-35
2022/01/11 00:17:06;;;;;;;1.13;0.90;;;;;;;;;;4197795;28;20052;-36
2022/01/11 00:19:07;;;;;;;1.58;1.10;;;;;;;;;;4197789;28;20059;-32
2022/01/11 00:21:08;;;;;;;1.05;0.80;;;;;;;;;;4197722;28;20107;-33
2022/01/11 00:25:10;;;;;;;1.05;0.85;;;;;;;;;;4197630;28;20468;-33
2022/01/11 00:27:11;;;;;;;0.98;0.88;;;;;;;;;;4197520;28;20439;-33
2022/01/11 00:29:12;;;;;;;1.30;1.00;;;;;;;;;;4197358;28;20048;-33
2022/01/11 00:31:14;;;;;;;0.70;0.70;;;;;;;;;;4197526;28;20327;-38
2022/01/11 00:33:19;;;;;;;1.33;1.00;;;;;;;;;;4196726;28;20136;-34
2022/01/11 00:35:27;;;;;;;1.10;0.85;;;;;;;;;;4195733;28;20049;-34
2022/01/11 00:37:28;;;;;;;1.27;1.00;;;;;;;;;;4195948;28;20052;-33
2022/01/11 00:39:29;;;;;;;1.85;1.10;;;;;;;;;;4197338;28;20437;-33
2022/01/11 00:41:30;;;;;;;1.10;1.00;;;;;;;;;;4195986;28;20070;-33
2022/01/11 00:43:31;;;;;;;1.10;0.80;;;;;;;;;;4196172;28;20135;-32
2022/01/11 00:45:32;;;;;;;1.35;1.13;;;;;;;;;;4197672;28;20053;-31
2022/01/11 00:47:34;;;;;;;1.20;0.90;;;;;;;;;;4196093;28;20056;-32
2022/01/11 00:49:35;;;;;;;0.77;0.77;;;;;;;;;;4197815;28;20083;-32
2022/01/11 00:51:36;;;;;;;1.38;0.90;;;;;;;;;;4197325;28;20057;-32
2022/01/11 00:53:38;;;;;;;1.02;0.73;;;;;;;;;;4197109;28;20040;-34
2022/01/11 00:55:39;;;;;;;1.02;0.90;;;;;;;;;;4196271;28;20053;-33
2022/01/11 00:57:40;;;;;;;0.70;0.60;;;;;;;;;;4197442;28;20053;-33
2022/01/11 00:59:41;;;;;;;0.65;0.60;;;;;;;;;;4197513;28;20095;-31
2022/01/11 01:01:42;;;;;;;1.17;0.90;;;;;;;;;;4197188;28;20095;-35
2022/01/11 01:03:42;;;;;;;1.00;0.80;;;;;;;;;;4197456;28;20091;-32
2022/01/11 01:05:44;;;;;;;1.00;0.90;;;;;;;;;;4197419;28;20392;-36
2022/01/11 01:07:46;;;;;;;1.52;1.00;;;;;;;;;;4195272;28;20044;-32
2022/01/11 01:10:13;;;;;;;1.42;1.10;;;;;;;;;;4196007;28;20056;-33
2022/01/11 01:12:16;;;;;;;1.08;0.82;;;;;;;;;;4195614;28;20504;-33
2022/01/11 01:14:18;;;;;;;1.08;0.98;;;;;;;;;;4195581;28;20064;-35
2022/01/11 01:16:22;;;;;;;1.00;0.90;;;;;;;;;;4195655;28;20044;-35
2022/01/11 01:18:44;;;;;;;1.10;0.82;;;;;;;;;;4196000;28;20048;-33
2022/01/11 01:20:45;;;;;;;1.17;1.02;;;;;;;;;;4195608;28;20049;-33
2022/01/11 01:22:50;;;;;;;1.95;0.88;;;;;;;;;;4194628;28;20052;-32
2022/01/11 01:24:52;;;;;;;0.63;0.57;;;;;;;;;;4197063;28;20098;-32
2022/01/11 01:26:52;;;;;;;0.77;0.70;;;;;;;;;;4195664;28;20052;-37
2022/01/11 01:28:54;;;;;;;1.30;0.90;;;;;;;;;;4178972;28;20416;-35
2022/01/11 01:31:00;;;;;;;1.23;1.13;;;;;;;;;;4196880;28;20322;-34
2022/01/11 01:33:02;;;;;;;0.50;0.50;;;;;;;;;;4195280;28;20071;-34
2022/01/11 01:35:05;;;;;;;0.77;0.77;;;;;;;;;;4197019;28;20082;-33
2022/01/11 01:37:07;;;;;;;0.88;0.77;;;;;;;;;;4196185;28;20053;-36
2022/01/11 01:39:09;;;;;;;1.15;0.80;;;;;;;;;;4196630;28;20123;-34
2022/01/11 01:41:15;;;;;;;0.85;0.77;;;;;;;;;;4196604;28;20052;-34
2022/01/11 01:43:16;;;;;;;1.02;0.93;;;;;;;;;;4196423;28;20385;-35
2022/01/11 01:45:23;;;;;;;0.95;0.80;;;;;;;;;;4195088;28;20056;-34
2022/01/11 01:47:23;;;;;;;1.02;0.82;;;;;;;;;;4196512;28;20102;-31
2022/01/11 01:49:25;;;;;;;0.90;0.80;;;;;;;;;;4196515;28;20071;-35
2022/01/11 01:51:26;;;;;;;1.30;1.10;;;;;;;;;;4196595;28;20053;-32
2022/01/11 01:53:27;;;;;;;1.08;0.90;;;;;;;;;;4196044;28;20048;-33
2022/01/11 01:55:28;;;;;;;1.17;0.93;;;;;;;;;;4196510;28;20057;-33
2022/01/11 01:57:30;;;;;;;1.00;0.88;;;;;;;;;;4194721;28;20800;-32
2022/01/11 01:59:31;;;;;;;1.00;0.90;;;;;;;;;;4194905;28;20142;-34
2022/01/11 02:01:41;;;;;;;1.05;0.95;;;;;;;;;;4195223;28;20048;-34
2022/01/11 02:03:43;;;;;;;0.85;0.77;;;;;;;;;;4196275;28;20053;-35
2022/01/11 02:05:44;;;;;;;0.90;0.70;;;;;;;;;;4194983;28;20056;-33
2022/01/11 02:07:45;;;;;;;0.57;0.52;;;;;;;;;;4195608;28;20110;-32
2022/01/11 02:09:46;;;;;;;0.55;0.55;;;;;;;;;;4195187;28;20075;-35
2022/01/11 02:11:47;;;;;;;0.80;0.80;;;;;;;;;;4196044;28;20415;-35
2022/01/11 02:13:49;;;;;;;0.80;0.70;;;;;;;;;;4194737;28;20468;-35
2022/01/11 02:15:53;;;;;;;1.10;0.80;;;;;;;;;;4194689;28;20048;-33
2022/01/11 02:17:54;;;;;;;0.75;0.70;;;;;;;;;;4196302;28;20045;-32
2022/01/11 02:19:56;;;;;;;0.90;0.80;;;;;;;;;;4194671;28;20427;-32
2022/01/11 02:21:57;;;;;;;0.93;0.77;;;;;;;;;;4193958;28;20124;-32
2022/01/11 02:23:59;;;;;;;1.17;0.95;;;;;;;;;;4194109;28;20061;-34
2022/01/11 02:26:04;;;;;;;0.82;0.80;;;;;;;;;;4177986;28;20097;-32
2022/01/11 02:28:06;;;;;;;1.17;1.00;;;;;;;;;;4194380;28;20045;-33
2022/01/11 02:30:08;;;;;;;0.70;0.70;;;;;;;;;;4194568;28;20049;-32
2022/01/11 02:32:09;;;;;;;1.20;1.10;;;;;;;;;;4177651;28;20163;-34
2022/01/11 02:34:11;;;;;;;1.00;0.73;;;;;;;;;;4194247;28;20045;-32
2022/01/11 02:36:32;;;;;;;0.80;0.80;;;;;;;;;;4195708;28;20052;-33
2022/01/11 02:38:44;;;;;;;1.02;0.70;;;;;;;;;;4194136;28;20468;-35
2022/01/11 02:40:46;;;;;;;0.70;0.70;;;;;;;;;;4194317;28;20052;-34
2022/01/11 02:42:48;;;;;;;0.80;0.80;;;;;;;;;;4194060;28;20056;-34
2022/01/11 02:44:49;;;;;;;0.57;0.57;;;;;;;;;;4194389;28;20060;-38
2022/01/11 02:46:54;;;;;;;1.45;0.95;;;;;;;;;;4194137;28;20049;-32
2022/01/11 02:48:57;;;;;;;0.65;0.60;;;;;;;;;;4194334;28;20056;-32
2022/01/11 02:51:02;;;;;;;1.00;0.82;;;;;;;;;;4194206;28;20516;-34
2022/01/11 02:53:04;;;;;;;1.35;0.90;;;;;;;;;;4193808;28;20048;-33
2022/01/11 02:55:08;;;;;;;0.88;0.77;;;;;;;;;;4194044;28;20129;-37
2022/01/11 02:57:10;;;;;;;1.25;0.88;;;;;;;;;;4193964;28;20057;-35
2022/01/11 02:59:11;;;;;;;0.70;0.65;;;;;;;;;;4193998;28;20074;-32
2022/01/11 03:01:12;;;;;;;0.70;0.70;;;;;;;;;;4195507;28;20052;-33
2022/01/11 03:03:22;;;;;;;0.95;0.85;;;;;;;;;;4194201;28;20052;-32
2022/01/11 03:05:24;;;;;;;0.98;0.90;;;;;;;;;;4194215;28;20052;-33
2022/01/11 03:07:26;;;;;;;0.90;0.73;;;;;;;;;;4193741;28;20052;-33
2022/01/11 03:09:31;;;;;;;1.13;0.85;;;;;;;;;;4195571;28;20135;-34
2022/01/11 03:11:34;;;;;;;1.58;1.15;;;;;;;;;;4195542;28;20056;-36
2022/01/11 03:13:35;;;;;;;1.02;0.80;;;;;;;;;;4193875;28;20405;-33
2022/01/11 03:15:37;;;;;;;0.50;0.50;;;;;;;;;;4194048;28;20401;-32
2022/01/11 03:17:42;;;;;;;0.88;0.80;;;;;;;;;;4193914;28;20443;-32
2022/01/11 03:19:43;;;;;;;0.60;0.50;;;;;;;;;;4193938;28;20049;-32
2022/01/11 03:21:44;;;;;;;1.15;0.98;;;;;;;;;;4193661;28;20094;-36
2022/01/11 03:23:47;;;;;;;1.17;0.75;;;;;;;;;;4193944;28;20061;-32
2022/01/11 03:25:51;;;;;;;1.13;0.82;;;;;;;;;;4194370;28;20056;-35
2022/01/11 03:27:52;;;;;;;0.80;0.70;;;;;;;;;;4195257;28;20053;-34
2022/01/11 03:29:55;;;;;;;1.20;0.85;;;;;;;;;;4194160;28;20078;-33
2022/01/11 03:31:56;;;;;;;1.00;0.80;;;;;;;;;;4193957;28;20048;-36
2022/01/11 03:33:57;;;;;;;0.90;0.65;;;;;;;;;;4193822;28;20464;-33
2022/01/11 03:35:59;;;;;;;0.60;0.50;;;;;;;;;;4198391;28;20064;-34
2022/01/11 03:38:00;;;;;;;0.73;0.68;;;;;;;;;;4196516;28;20052;-33
2022/01/11 03:40:02;;;;;;;1.10;0.88;;;;;;;;;;4196893;28;20052;-33
2022/01/11 03:42:03;;;;;;;0.88;0.80;;;;;;;;;;4197020;28;20052;-35
2022/01/11 03:44:04;;;;;;;1.55;1.05;;;;;;;;;;4197789;28;20049;-33
2022/01/11 03:46:05;;;;;;;0.93;0.82;;;;;;;;;;4196769;28;20053;-32
2022/01/11 03:48:07;;;;;;;0.93;0.80;;;;;;;;;;4191991;28;20570;-33
2022/01/11 03:50:10;;;;;;;1.02;0.73;;;;;;;;;;4193317;28;20441;-35
2022/01/11 03:52:11;;;;;;;0.70;0.65;;;;;;;;;;4195954;28;20048;-36
2022/01/11 03:54:15;;;;;;;0.73;0.63;;;;;;;;;;4196762;28;20052;-33
2022/01/11 03:56:42;;;;;;;0.98;0.70;;;;;;;;;;4180854;28;20142;-34
2022/01/11 03:58:52;;;;;;;0.85;0.80;;;;;;;;;;4180592;28;20049;-33
2022/01/11 04:00:54;;;;;;;0.85;0.77;;;;;;;;;;4163495;28;20049;-34
2022/01/11 04:02:55;;;;;;;1.00;0.75;;;;;;;;;;4181658;28;20057;-33
2022/01/11 04:04:57;;;;;;;0.90;0.75;;;;;;;;;;4181525;28;20477;-37
2022/01/11 04:07:00;;;;;;;0.88;0.88;;;;;;;;;;4181073;28;20057;-34
2022/01/11 04:09:03;;;;;;;0.60;0.60;;;;;;;;;;4196964;28;20056;-32
2022/01/11 04:11:05;;;;;;;0.80;0.65;;;;;;;;;;4196750;28;20053;-35
2022/01/11 04:13:06;;;;;;;1.00;0.90;;;;;;;;;;4179881;28;20463;-35
2022/01/11 04:15:08;;;;;;;0.82;0.70;;;;;;;;;;4181655;28;20052;-33
2022/01/11 04:17:09;;;;;;;1.00;0.80;;;;;;;;;;4179974;28;20045;-34
2022/01/11 04:19:10;;;;;;;1.00;0.90;;;;;;;;;;4181666;28;20110;-32
2022/01/11 04:21:13;;;;;;;0.98;0.88;;;;;;;;;;4179965;28;20101;-32
2022/01/11 04:23:16;;;;;;;0.57;0.57;;;;;;;;;;4179509;28;20190;-33
2022/01/11 04:25:18;;;;;;;1.00;0.60;;;;;;;;;;4180170;28;20060;-33
2022/01/11 04:27:19;;;;;;;1.08;0.60;;;;;;;;;;4181470;28;20065;-36
2022/01/11 04:29:21;;;;;;;1.10;0.88;;;;;;;;;;4179907;28;20467;-32
2022/01/11 04:31:22;;;;;;;0.82;0.70;;;;;;;;;;4179709;28;20048;-34
2022/01/11 04:33:24;;;;;;;0.70;0.70;;;;;;;;;;4179651;28;20151;-32
2022/01/11 04:35:26;;;;;;;0.75;0.55;;;;;;;;;;4179889;28;20057;-32
2022/01/11 04:37:27;;;;;;;0.98;0.70;;;;;;;;;;4179573;28;20186;-32
2022/01/11 04:39:28;;;;;;;1.10;0.65;;;;;;;;;;4180677;28;20059;-35
2022/01/11 04:41:29;;;;;;;0.60;0.45;;;;;;;;;;4179331;28;20448;-34
2022/01/11 04:43:30;;;;;;;0.68;0.60;;;;;;;;;;4179487;28;20087;-34
2022/01/11 04:45:31;;;;;;;0.73;0.70;;;;;;;;;;4180057;28;20053;-34
2022/01/11 04:47:33;;;;;;;0.88;0.70;;;;;;;;;;4179558;28;20060;-35
2022/01/11 04:49:34;;;;;;;0.88;0.77;;;;;;;;;;4181189;28;20053;-32
2022/01/11 04:51:35;;;;;;;0.73;0.60;;;;;;;;;;4179500;28;20175;-36
2022/01/11 04:53:38;;;;;;;0.82;0.80;;;;;;;;;;4178912;28;20482;-34
2022/01/11 04:55:39;;;;;;;0.75;0.75;;;;;;;;;;4180740;28;20077;-32
2022/01/11 04:57:40;;;;;;;1.15;0.90;;;;;;;;;;4179386;28;20075;-35
2022/01/11 04:59:41;;;;;;;0.77;0.73;;;;;;;;;;4179732;28;20049;-32
2022/01/11 05:01:43;;;;;;;1.05;0.77;;;;;;;;;;4179511;28;20099;-32
2022/01/11 05:03:44;;;;;;;1.05;0.73;;;;;;;;;;4179233;28;20045;-32
2022/01/11 05:05:46;;;;;;;1.00;0.90;;;;;;;;;;4179495;28;20124;-33
2022/01/11 05:07:49;;;;;;;0.80;0.63;;;;;;;;;;4178790;28;20102;-35
2022/01/11 05:09:51;;;;;;;0.93;0.77;;;;;;;;;;4179509;28;20064;-36
2022/01/11 05:11:52;;;;;;;1.02;0.82;;;;;;;;;;4180683;28;20052;-34
2022/01/11 05:13:53;;;;;;;0.98;0.88;;;;;;;;;;4180432;28;20103;-36
2022/01/11 05:16:09;;;;;;;0.88;0.57;;;;;;;;;;4179499;28;20053;-32
2022/01/11 05:18:10;;;;;;;0.85;0.70;;;;;;;;;;4179036;28;20061;-37
2022/01/11 05:20:12;;;;;;;0.70;0.70;;;;;;;;;;4162729;28;20496;-33
2022/01/11 05:22:13;;;;;;;0.57;0.55;;;;;;;;;;4178656;28;20049;-33
2022/01/11 05:24:14;;;;;;;0.90;0.70;;;;;;;;;;4180367;28;20128;-34
2022/01/11 05:26:16;;;;;;;0.50;0.50;;;;;;;;;;4179008;28;20041;-31
2022/01/11 05:28:17;;;;;;;0.60;0.60;;;;;;;;;;4178745;28;20076;-32
2022/01/11 05:30:19;;;;;;;0.82;0.60;;;;;;;;;;4178889;28;20049;-32
2022/01/11 05:32:21;;;;;;;0.70;0.60;;;;;;;;;;4178718;28;20053;-33
2022/01/11 05:34:22;;;;;;;1.10;0.77;;;;;;;;;;4180506;28;20052;-35
2022/01/11 05:36:23;;;;;;;1.00;0.70;;;;;;;;;;4180216;28;20049;-32
2022/01/11 05:38:25;;;;;;;1.08;0.90;;;;;;;;;;4179421;28;20139;-34
2022/01/11 05:40:26;;;;;;;0.80;0.70;;;;;;;;;;4178512;28;20136;-36
2022/01/11 05:42:32;;;;;;;0.80;0.60;;;;;;;;;;4178397;28;20107;-34
2022/01/11 05:44:33;;;;;;;0.65;0.60;;;;;;;;;;4178480;28;20457;-33
2022/01/11 05:46:35;;;;;;;1.27;0.85;;;;;;;;;;4178090;28;20487;-35
2022/01/11 05:48:36;;;;;;;1.17;1.00;;;;;;;;;;4178265;28;20049;-34
2022/01/11 05:50:38;;;;;;;1.20;0.80;;;;;;;;;;4180057;28;20061;-32
2022/01/11 05:52:42;;;;;;;1.13;0.90;;;;;;;;;;4177834;28;20126;-32
2022/01/11 05:54:43;;;;;;;1.20;1.00;;;;;;;;;;4178348;28;20097;-34
2022/01/11 05:56:44;;;;;;;1.10;1.00;;;;;;;;;;4178048;28;20053;-35
2022/01/11 05:58:46;;;;;;;0.98;0.82;;;;;;;;;;4177715;28;20045;-36
2022/01/11 06:00:47;;;;;;;1.00;0.90;;;;;;;;;;4179393;28;20060;-32
2022/01/11 06:02:54;;;;;;;2.15;1.05;;;;;;;;;;4178264;28;20061;-34
2022/01/11 06:05:04;;;;;;;0.75;0.75;;;;;;;;;;4178376;28;20061;-33
2022/01/11 06:07:05;;;;;;;1.77;0.60;;;;;;;;;;4177644;28;20430;-35
2022/01/11 06:09:07;;;;;;;1.00;1.00;;;;;;;;;;4178157;28;20049;-35
2022/01/11 06:11:08;;;;;;;1.00;0.90;;;;;;;;;;4179730;28;20053;-36
2022/01/11 06:13:13;;;;;;;1.48;1.00;;;;;;;;;;4178225;28;20045;-34
2022/01/11 06:15:16;;;;;;;1.35;1.25;;;;;;;;;;4178085;28;20179;-32
2022/01/11 06:17:17;;;;;;;0.77;0.70;;;;;;;;;;4177937;28;20072;-33
2022/01/11 06:19:18;;;;;;;2.03;1.00;;;;;;;;;;4178034;28;20052;-32
2022/01/11 06:21:24;;;;;;;0.85;0.75;;;;;;;;;;4178032;28;20506;-34
2022/01/11 06:23:25;;;;;;;1.10;0.80;;;;;;;;;;4177313;28;20203;-33
2022/01/11 06:25:26;;;;;;;1.85;1.15;;;;;;;;;;4178239;28;20057;-36
2022/01/11 06:27:28;;;;;;;2.45;1.00;;;;;;;;;;4177629;28;20067;-34
2022/01/11 06:29:29;;;;;;;1.10;0.90;;;;;;;;;;4179174;28;20409;-35
2022/01/11 06:31:32;;;;;;;1.15;0.70;;;;;;;;;;4177957;28;20052;-35
2022/01/11 06:33:34;;;;;;;2.28;0.82;;;;;;;;;;4177780;28;20438;-34
2022/01/11 06:35:38;;;;;;;1.27;0.93;;;;;;;;;;4177946;28;20044;-32
2022/01/11 06:37:42;;;;;;;1.45;1.00;;;;;;;;;;4177055;28;20410;-37
2022/01/11 06:39:43;;;;;;;0.85;0.77;;;;;;;;;;4179101;28;20045;-32
2022/01/11 06:41:46;;;;;;;1.38;0.93;;;;;;;;;;4177699;28;20049;-34
2022/01/11 06:43:52;;;;;;;1.15;0.80;;;;;;;;;;4177740;28;20060;-32
2022/01/11 06:45:53;;;;;;;1.10;0.80;;;;;;;;;;4177735;28;20452;-36
2022/01/11 06:47:56;;;;;;;1.45;1.10;;;;;;;;;;4177633;28;20053;-32
2022/01/11 06:49:58;;;;;;;1.02;0.88;;;;;;;;;;4178931;28;20049;-34
2022/01/11 06:52:00;;;;;;;0.93;0.70;;;;;;;;;;4177192;28;20048;-33
2022/01/11 06:54:01;;;;;;;1.15;0.95;;;;;;;;;;4177380;28;20565;-36
2022/01/11 06:56:02;;;;;;;1.35;0.88;;;;;;;;;;4177401;28;20057;-32
2022/01/11 06:58:06;;;;;;;1.25;1.15;;;;;;;;;;4171585;28;20473;-32
2022/01/11 07:00:10;;;;;;;1.30;1.00;;;;;;;;;;4183141;28;20400;-34
2022/01/11 07:02:14;;;;;;;1.55;1.00;;;;;;;;;;4189238;28;20565;-34
2022/01/11 07:04:37;;;;;;;1.17;0.95;;;;;;;;;;4185238;28;20185;-32
2022/01/11 07:06:38;;;;;;;1.10;0.90;;;;;;;;;;4182113;28;20758;-33
2022/01/11 07:08:41;;;;;;;1.95;1.02;;;;;;;;;;4184714;28;20060;-33
2022/01/11 07:10:42;;;;;;;1.38;1.13;;;;;;;;;;4191306;28;20093;-33
2022/01/11 07:12:43;;;;;;;1.45;0.88;;;;;;;;;;4184699;28;20467;-35
2022/01/11 07:14:44;;;;;;;1.10;1.00;;;;;;;;;;4192304;28;20072;-33
2022/01/11 07:16:48;;;;;;;0.70;0.70;;;;;;;;;;4184774;28;20669;-38
2022/01/11 07:18:50;;;;;;;1.05;0.80;;;;;;;;;;4182072;28;20110;-37
2022/01/11 07:20:51;;;;;;;0.88;0.77;;;;;;;;;;4183009;28;20045;-35
2022/01/11 07:22:58;;;;;;;1.67;0.88;;;;;;;;;;4183313;28;20064;-36
2022/01/11 07:24:59;;;;;;;0.98;0.70;;;;;;;;;;4177687;28;20443;-34
2022/01/11 07:27:00;;;;;;;1.05;0.95;;;;;;;;;;4181486;28;20044;-38
2022/01/11 07:29:03;;;;;;;0.85;0.85;;;;;;;;;;4184870;28;20056;-33
2022/01/11 07:31:05;;;;;;;1.70;1.20;;;;;;;;;;4166086;28;20053;-42
2022/01/11 07:33:10;;;;;;;1.15;1.00;;;;;;;;;;4176298;28;20053;-35
2022/01/11 07:35:12;;;;;;;0.93;0.82;;;;;;;;;;4192866;28;20189;-35
2022/01/11 07:37:14;;;;;;;1.13;0.90;;;;;;;;;;4177472;28;20044;-35
2022/01/11 07:39:18;;;;;;;1.08;0.90;;;;;;;;;;4175722;28;20049;-38
2022/01/11 07:41:19;;;;;;;0.93;0.82;;;;;;;;;;4191200;28;20098;-33
2022/01/11 07:43:34;;;;;;;1.00;0.90;;;;;;;;;;4189423;28;20429;-32
2022/01/11 07:45:48;;;;;;;1.38;0.85;;;;;;;;;;4183576;28;20079;-32
2022/01/11 07:47:53;;;;;;;0.77;0.70;;;;;;;;;;4176407;28;20098;-36
2022/01/11 07:49:57;;;;;;;2.40;1.15;;;;;;;;;;4176420;28;20053;-34
2022/01/11 07:51:58;;;;;;;0.98;0.70;;;;;;;;;;4183157;28;20481;-34
2022/01/11 07:53:59;;;;;;;1.20;1.10;;;;;;;;;;4162053;28;20057;-33
2022/01/11 07:56:00;;;;;;;0.75;0.75;;;;;;;;;;4184901;28;20354;-33
2022/01/11 07:58:07;;;;;;;1.30;0.85;;;;;;;;;;4179044;28;20060;-33
2022/01/11 08:00:09;;;;;;;0.98;0.80;;;;;;;;;;4180379;28;20477;-37
2022/01/11 08:02:17;;;;;;;1.20;0.80;;;;;;;;;;4181577;28;20044;-35
2022/01/11 08:04:18;;;;;;;1.70;0.70;;;;;;;;;;4164738;28;20069;-34
2022/01/11 08:06:27;;;;;;;0.93;0.73;;;;;;;;;;4183461;28;20048;-32
2022/01/11 08:08:46;;;;;;;1.08;0.90;;;;;;;;;;4185712;28;20102;-38
2022/01/11 08:10:47;;;;;;;0.98;0.80;;;;;;;;;;4183625;28;20447;-36
2022/01/11 08:12:48;;;;;;;0.95;0.80;;;;;;;;;;4184314;28;20146;-38
2022/01/11 08:14:51;;;;;;;2.15;1.00;;;;;;;;;;4181108;28;20512;-38
2022/01/11 08:16:52;;;;;;;0.65;0.60;;;;;;;;;;4187532;28;20115;-32
2022/01/11 08:19:03;;;;;;;0.85;0.80;;;;;;;;;;4186931;28;20048;-33
2022/01/11 08:21:06;;;;;;;1.20;0.77;;;;;;;;;;4184962;28;20122;-36
2022/01/11 08:23:07;;;;;;;1.50;0.95;;;;;;;;;;4183141;28;20493;-35
2022/01/11 08:25:10;;;;;;;1.17;0.70;;;;;;;;;;4182421;28;20060;-35
2022/01/11 08:27:11;;;;;;;0.93;0.70;;;;;;;;;;4185607;28;20056;-32
2022/01/11 08:29:14;;;;;;;1.10;0.90;;;;;;;;;;4182552;28;20072;-34
2022/01/11 08:31:17;;;;;;;0.93;0.70;;;;;;;;;;4184643;28;20060;-36
2022/01/11 08:33:24;;;;;;;1.13;0.90;;;;;;;;;;4178021;28;21253;-34
2022/01/11 08:35:26;;;;;;;1.23;0.95;;;;;;;;;;4187040;28;20622;-35
2022/01/11 08:37:31;;;;;;;1.38;0.90;;;;;;;;;;4190659;28;20459;-34
2022/01/11 08:39:32;;;;;;;1.27;0.63;;;;;;;;;;4186531;28;20079;-32
2022/01/11 08:41:33;;;;;;;1.65;1.00;;;;;;;;;;4172093;28;20041;-37
2022/01/11 08:43:36;;;;;;;1.10;0.80;;;;;;;;;;4182377;28;20382;-32
2022/01/11 08:45:37;;;;;;;2.47;0.88;;;;;;;;;;4184716;28;20056;-39
2022/01/11 08:47:45;;;;;;;0.90;0.70;;;;;;;;;;4188927;28;20383;-35
2022/01/11 08:49:46;;;;;;;1.25;0.90;;;;;;;;;;4176953;28;20140;-36
2022/01/11 08:51:48;;;;;;;0.85;0.70;;;;;;;;;;4179300;28;20381;-34
2022/01/11 08:53:49;;;;;;;1.08;0.90;;;;;;;;;;4168290;28;20064;-37
2022/01/11 08:55:51;;;;;;;1.17;0.88;;;;;;;;;;4176660;28;20111;-35
2022/01/11 08:57:52;;;;;;;1.60;0.93;;;;;;;;;;4182386;28;20492;-32
2022/01/11 08:59:54;;;;;;;1.48;0.80;;;;;;;;;;4180742;28;20091;-31
2022/01/11 09:01:57;;;;;;;0.73;0.70;;;;;;;;;;4181857;28;20056;-37
2022/01/11 09:04:01;;;;;;;0.60;0.60;;;;;;;;;;4188611;28;20114;-35
2022/01/11 09:06:07;;;;;;;1.15;0.70;;;;;;;;;;4180547;28;20067;-33
2022/01/11 09:08:11;;;;;;;0.95;0.80;;;;;;;;;;4181544;28;20056;-38
2022/01/11 09:10:12;;;;;;;1.02;0.93;;;;;;;;;;4177823;28;20075;-35
2022/01/11 09:12:15;;;;;;;1.50;1.17;;;;;;;;;;4181494;28;20507;-40
2022/01/11 09:14:19;;;;;;;0.88;0.70;;;;;;;;;;4177813;28;20098;-33
2022/01/11 09:16:22;;;;;;;1.15;0.77;;;;;;;;;;4183447;28;20051;-32
2022/01/11 09:18:23;;;;;;;0.73;0.68;;;;;;;;;;4184650;28;20052;-33
2022/01/11 09:20:26;;;;;;;1.20;1.00;;;;;;;;;;4176715;28;20037;-40
2022/01/11 09:22:27;;;;;;;1.42;1.00;;;;;;;;;;4183985;28;20083;-39
2022/01/11 09:24:29;;;;;;;0.98;0.82;;;;;;;;;;4183467;28;20114;-38
2022/01/11 09:26:32;;;;;;;1.55;1.13;;;;;;;;;;4183649;28;20049;-32
2022/01/11 09:28:33;;;;;;;1.38;1.10;;;;;;;;;;4181252;28;20053;-35
2022/01/11 09:30:37;;;;;;;1.10;0.98;;;;;;;;;;4180840;28;20049;-36
2022/01/11 09:32:41;;;;;;;1.17;0.90;;;;;;;;;;4181574;28;20061;-33
2022/01/11 09:34:42;;;;;;;1.02;0.90;;;;;;;;;;4182685;28;20094;-32
2022/01/11 09:36:50;;;;;;;1.23;0.75;;;;;;;;;;4177386;28;20130;-38
2022/01/11 09:38:50;;;;;;;0.88;0.85;;;;;;;;;;4182032;28;20052;-31
2022/01/11 09:40:53;;;;;;;0.77;0.70;;;;;;;;;;4182321;28;20049;-34
2022/01/11 09:42:55;;;;;;;1.63;0.93;;;;;;;;;;4182410;28;20052;-37
2022/01/11 09:44:58;;;;;;;1.27;1.00;;;;;;;;;;4184481;28;20053;-33
2022/01/11 09:47:00;;;;;;;1.35;0.98;;;;;;;;;;4180528;28;20048;-34
2022/01/11 09:49:02;;;;;;;2.50;1.08;;;;;;;;;;4183120;28;20056;-32
2022/01/11 09:51:03;;;;;;;0.95;0.90;;;;;;;;;;4188663;28;20182;-34
2022/01/11 09:53:06;;;;;;;1.17;0.93;;;;;;;;;;4186479;28;20037;-37
2022/01/11 09:55:11;;;;;;;1.17;0.80;;;;;;;;;;4179881;28;20064;-40
2022/01/11 09:57:15;;;;;;;1.35;0.98;;;;;;;;;;4167202;28;20044;-32
2022/01/11 09:59:17;;;;;;;1.23;0.80;;;;;;;;;;4193455;28;20106;-36
2022/01/11 10:01:37;;;;;;;2.25;1.10;;;;;;;;;;4185490;28;20389;-37
2022/01/11 10:04:01;;;;;;;1.38;1.15;;;;;;;;;;4186716;28;20460;-35
2022/01/11 10:06:15;;;;;;;2.65;0.80;;;;;;;;;;4183104;28;20201;-38
2022/01/11 10:08:20;;;;;;;1.52;1.17;;;;;;;;;;4183188;28;20103;-33
2022/01/11 10:10:23;;;;;;;1.48;0.98;;;;;;;;;;4181892;28;20052;-31
2022/01/11 10:12:29;;;;;;;1.00;0.68;;;;;;;;;;4197213;28;20048;-37
2022/01/11 10:14:35;;;;;;;1.05;0.95;;;;;;;;;;4176535;28;20064;-39
2022/01/11 10:16:40;;;;;;;1.40;0.85;;;;;;;;;;4182062;28;20057;-35
2022/01/11 10:18:41;;;;;;;0.80;0.80;;;;;;;;;;4182067;28;20053;-37
2022/01/11 10:20:46;;;;;;;1.10;1.00;;;;;;;;;;4184054;28;20053;-35
2022/01/11 10:22:57;;;;;;;0.98;0.90;;;;;;;;;;4181055;28;20052;-38
2022/01/11 10:24:59;;;;;;;1.42;1.10;;;;;;;;;;4177050;28;20091;-35
2022/01/11 10:27:13;;;;;;;1.75;1.13;;;;;;;;;;4179051;28;20036;-37
2022/01/11 10:29:23;;;;;;;1.40;0.90;;;;;;;;;;4180123;28;20041;-33
2022/01/11 10:31:32;;;;;;;1.10;0.90;;;;;;;;;;4187599;28;20048;-37
2022/01/11 10:33:33;;;;;;;1.13;0.70;;;;;;;;;;4186765;28;20074;-35
2022/01/11 10:35:42;;;;;;;1.27;0.82;;;;;;;;;;4179314;28;20382;-33
2022/01/11 10:37:48;;;;;;;1.50;1.08;;;;;;;;;;4176659;28;20083;-33
2022/01/11 10:39:49;;;;;;;1.42;0.98;;;;;;;;;;4183511;28;20482;-33
2022/01/11 10:41:51;;;;;;;1.13;0.88;;;;;;;;;;4178256;28;20065;-34
2022/01/11 10:44:00;;;;;;;1.23;1.05;;;;;;;;;;4181582;28;20097;-31
2022/01/11 10:46:02;;;;;;;1.50;1.10;;;;;;;;;;4165013;28;20056;-33
2022/01/11 10:48:13;;;;;;;0.77;0.70;;;;;;;;;;4177203;28;20097;-33
2022/01/11 10:50:19;;;;;;;1.40;1.00;;;;;;;;;;4177146;28;20057;-34
2022/01/11 10:52:23;;;;;;;0.90;0.70;;;;;;;;;;4175669;28;20105;-37
2022/01/11 10:54:35;;;;;;;1.88;0.80;;;;;;;;;;4176081;28;20488;-37
2022/01/11 10:56:40;;;;;;;1.70;0.88;;;;;;;;;;4180102;28;20492;-34
2022/01/11 10:58:42;;;;;;;0.90;0.80;;;;;;;;;;4178640;28;20053;-37
2022/01/11 11:00:44;;;;;;;0.95;0.85;;;;;;;;;;4184148;28;20040;-32
2022/01/11 11:02:49;;;;;;;0.85;0.80;;;;;;;;;;4181429;28;20084;-32
2022/01/11 11:04:55;;;;;;;1.20;0.80;;;;;;;;;;4178236;28;20085;-35
2022/01/11 11:07:10;;;;;;;1.17;0.85;;;;;;;;;;4173051;28;20649;-32
2022/01/11 11:09:17;;;;;;;0.93;0.80;;;;;;;;;;4174480;28;20100;-34
2022/01/11 11:11:36;;;;;;;1.02;0.70;;;;;;;;;;4176941;28;20061;-35
2022/01/11 11:13:57;;;;;;;1.08;0.98;;;;;;;;;;4173530;28;20493;-39
2022/01/11 11:16:20;;;;;;;2.80;0.95;;;;;;;;;;4170495;28;20063;-35
2022/01/11 11:18:34;;;;;;;1.85;0.90;;;;;;;;;;4174321;28;20532;-33
2022/01/11 11:20:40;;;;;;;0.90;0.80;;;;;;;;;;4181251;28;20113;-34
2022/01/11 11:22:41;;;;;;;0.70;0.70;;;;;;;;;;4180050;28;20106;-36
2022/01/11 11:24:42;;;;;;;1.23;0.80;;;;;;;;;;4178080;28;20102;-37
2022/01/11 11:26:48;;;;;;;1.15;1.02;;;;;;;;;;4182521;28;20049;-32
2022/01/11 11:28:49;;;;;;;0.98;0.60;;;;;;;;;;4184092;28;20101;-35
2022/01/11 11:30:50;;;;;;;0.85;0.70;;;;;;;;;;4178836;28;20052;-37
2022/01/11 11:32:52;;;;;;;0.75;0.68;;;;;;;;;;4179396;28;20465;-37
2022/01/11 11:34:56;;;;;;;0.98;0.77;;;;;;;;;;4180903;28;20435;-36
2022/01/11 11:37:03;;;;;;;1.25;0.77;;;;;;;;;;4187002;28;20049;-35
2022/01/11 11:39:11;;;;;;;0.90;0.73;;;;;;;;;;4188722;28;20053;-36
2022/01/11 11:41:15;;;;;;;0.88;0.70;;;;;;;;;;4185098;28;20093;-32
2022/01/11 11:43:16;;;;;;;1.45;0.70;;;;;;;;;;4181516;28;20465;-35
2022/01/11 11:45:19;;;;;;;0.75;0.65;;;;;;;;;;4184170;28;20060;-33
2022/01/11 11:47:30;;;;;;;0.75;0.60;;;;;;;;;;4181404;28;20049;-33
2022/01/11 11:49:45;;;;;;;1.30;0.82;;;;;;;;;;4177737;28;20075;-37
2022/01/11 11:51:48;;;;;;;0.80;0.73;;;;;;;;;;4180642;28;20132;-33
2022/01/11 11:53:49;;;;;;;0.73;0.70;;;;;;;;;;4179429;28;20051;-43
2022/01/11 11:55:50;;;;;;;0.80;0.65;;;;;;;;;;4179228;28;20118;-34
2022/01/11 11:57:53;;;;;;;1.30;0.70;;;;;;;;;;4180420;28;20400;-34
2022/01/11 11:59:55;;;;;;;0.88;0.80;;;;;;;;;;4182336;28;20041;-36
2022/01/11 12:01:58;;;;;;;0.57;0.50;;;;;;;;;;4183323;28;20127;-31
2022/01/11 12:03:59;;;;;;;1.23;0.82;;;;;;;;;;4182029;28;20081;-36
2022/01/11 12:06:00;;;;;;;0.85;0.63;;;;;;;;;;4180922;28;20053;-33
2022/01/11 12:08:20;;;;;;;1.58;0.80;;;;;;;;;;4183429;28;20096;-34
2022/01/11 12:10:30;;;;;;;0.73;0.50;;;;;;;;;;4186880;28;20548;-33
2022/01/11 12:12:31;;;;;;;;;;;;;;;;;;4181850;28;20045;-36
2022/01/11 12:14:33;;;;;;;0.93;0.80;;;;;;;;;;4180348;28;19928;-34
2022/01/11 12:16:39;;;;;;;0.73;0.60;;;;;;;;;;4181700;28;20457;-36
2022/01/11 12:18:41;;;;;;;1.52;0.70;;;;;;;;;;4184137;28;20056;-32
2022/01/11 12:20:42;;;;;;;1.13;0.65;;;;;;;;;;4183511;28;20057;-32
2022/01/11 12:22:50;;;;;;;0.73;0.70;;;;;;;;;;4188238;28;20132;-35